Little Genesee, New York
Current Conditions -  °F | °C
As of 11:56 PM on Thursday 30 Oct 2014 (Local Time) from KELZ Reporting Station
Overcast Overcast  
Wind Chill: 38°   Ceiling: 3200
Heat Index: 38°   Visibility: 10mi
Dew Point: 31°   Wind: 3mph
Humidity: 76%   Direction: 240°WSW
Pressure: 30.01"   Gusts: NA
Location:  42.03°N, 78.21°W
Report Text: KELZ 310356Z AUTO 24003KT 10SM OVC032 03/M01 A3001 RMK AO2 SLP177 T00331006
Loading
Personal Weather Stations






























Interactive Weather Map
Tropical Storm Tracking
New forecast layout! Learn more

10-Day Weather Forecast

Advertisements
Track Severe Weather on mobile